首页
METAR-TAF:

METAR-TAF

机场 :

Roanoke Regional Airport (Woodrum Field)

羅阿諾克, 弗吉尼亚州, 美国

纬度: 37-19-01N, 经度: 079-58-27W, 海拔: 358米

当前天气观测

该预报发布于53分钟前的09:54 UTC
风速12节,风向北转西北,有时为19节阵风
温度 6°C
湿度 56%
气压 1019 hPa
能見度: 16.1公里
多云层高于4600英尺

METAR: KROA 210954Z 33012G19KT 10SM BKN046 06/M02 A3008 RMK AO2 PK WND 34030/0925 SLP184 T00611022

时间: 06:47 (10:47 UTC)

预报

该预报发布于1小时和13分钟前的09:34 UTC
预报有效从21日的 10点(UTC)到 22日的 06点(UTC)
风速12节,风向西北,有时为26节阵风
能見度: 10公里
多云层高于6000英尺
从 21日的 1500点(UTC)
风速12节,风向西北,有时为22节阵风
能見度: 10公里
散云层高于3500英尺
从 21日的 2200点(UTC)
风速6节,风向西转西北
能見度: 10公里
少量云层高于25000英尺

TAF: KROA 210934Z 2110/2206 32012G26KT P6SM BKN060 FM211500 31012G22KT P6SM SCT035 FM212200 30006KT P6SM FEW250

超过4000个机场的气象观测和天气预报(METAR&TAF报告)。

可查询的气象台以黄色和红色小点在地图上表示。

将鼠标移到小点上方,可查看气象台名称。

然后点击查看天气观测和预报。

如需切换地图:点击带黑十字的绿色按钮放大地图;点击带横线的绿色按钮缩小地图;或者点击绿色箭头查看邻近地区的地图。


METAR-TAF: